Flight Track Log - Related Links

Times and Time Zones

All times are in EDT time to prevent confusion due to time zone crossing. See the VNR104 flight status page for this flight to view local times or setup timezone preferences in your user account.

Time Position Orientation Groundspeed Altitude Reporting Facility
EDT Latitude Longitude Course Direction KTS MPH feet Rate Location/Type
Sat 11:33:31 AM 32.2744 -106.9556 139° Southeast 199 229 7,200  Level Albuquerque Center
Sat 11:34:32 AM 32.2331 -106.9183 143° Southeast 190 219 9,600 2,049 Climbing Albuquerque Center
Sat 11:35:34 AM 32.1914 -106.8717 137° Southeast 196 226 11,400 1,839 Climbing Albuquerque Center
Sat 11:36:36 AM 32.1439 -106.8164 135° Southeast 235 270 13,400 1,951 Climbing Albuquerque Center
Sat 11:37:37 AM 32.0972 -106.7636 136° Southeast 234 269 15,400 2,098 Climbing Albuquerque Center
Sat 11:38:39 AM 32.0533 -106.6867 124° Southeast 242 278 17,700 1,887 Climbing Albuquerque Center
Sat 11:39:41 AM 32.0344 -106.6083 106° East 248 285 19,300 1,805 Climbing Albuquerque Center
Sat 11:40:42 AM 32.0139 -106.5286 107° East 254 292 21,400 2,000 Climbing Albuquerque Center
Sat 11:41:44 AM 31.9944 -106.4469 106° East 259 298 23,400 1,790 Climbing Albuquerque Center
Sat 11:42:46 AM 31.9742 -106.3636 106° East 264 304 25,100 1,512 Climbing Albuquerque Center
Sat 11:43:47 AM 31.9528 -106.2775 106° East 273 314 26,500 1,415 Climbing Albuquerque Center
Sat 11:44:49 AM 31.9564 -106.1889 87° East 273 314 28,000 1,500 Climbing Albuquerque Center
Sat 11:45:51 AM 31.9636 -106.0811 85° East 276 318 29,600 1,366 Climbing Albuquerque Center
Sat 11:46:52 AM 31.9692 -105.9917 86° East 274 315 30,800 1,122 Climbing Albuquerque Center
Sat 11:47:54 AM 31.9736 -105.9092 86° East 277 319 31,900 1,016 Climbing Albuquerque Center
Sat 11:48:56 AM 31.9789 -105.8189 86° East 276 318 32,900 780 Climbing Albuquerque Center
Sat 11:49:57 AM 32.0036 -105.7139 74° East 283 326 33,500 537 Climbing Albuquerque Center
Sat 11:50:59 AM 32.0492 -105.6319 57° Northeast 298 343 34,000 484 Climbing Albuquerque Center
Sat 11:52:01 AM 32.0942 -105.5492 57° Northeast 300 345 34,500 537 Climbing Albuquerque Center
Sat 11:53:02 AM 32.1433 -105.4653 55° Northeast 308 354 35,100 537 Climbing Albuquerque Center
Sat 11:54:04 AM 32.1939 -105.3811 55° Northeast 312 359 35,600 488 Climbing Albuquerque Center
Sat 11:55:05 AM 32.2444 -105.2964 55° Northeast 315 362 36,100 488 Climbing Albuquerque Center
Sat 11:56:07 AM 32.2947 -105.2114 55° Northeast 314 361 36,600 439 Climbing Albuquerque Center
Sat 11:57:08 AM 32.3433 -105.1258 56° Northeast 314 361 37,000 195 Climbing Albuquerque Center
Sat 11:58:10 AM 32.4056 -105.0214 55° Northeast 317 365 37,000  Level Albuquerque Center
Sat 11:59:11 AM 32.4581 -104.9242 57° Northeast 341 392 37,000  Level Albuquerque Center
Sat 12:00:13 PM 32.5164 -104.8217 56° Northeast 349 402 37,000  Level Albuquerque Center
Sat 12:01:14 PM 32.5725 -104.7258 55° Northeast 353 406 37,000  Level Albuquerque Center
Sat 12:02:16 PM 32.6292 -104.6306 55° Northeast 355 409 37,000  Level Albuquerque Center
Sat 12:03:17 PM 32.6858 -104.5317 56° Northeast 362 417 37,000  Level Albuquerque Center
Sat 12:04:19 PM 32.7475 -104.4247 56° Northeast 365 420 37,000  Level Albuquerque Center
Sat 12:05:20 PM 32.8053 -104.3244 56° Northeast 369 425 37,000  Level Albuquerque Center
Sat 12:06:22 PM 32.8667 -104.2167 56° Northeast 368 423 37,000  Level Albuquerque Center
Sat 12:07:23 PM 32.9239 -104.1175 55° Northeast 367 422 37,000  Level Albuquerque Center
Sat 12:08:25 PM 32.9814 -104.0167 56° Northeast 368 423 37,000  Level Albuquerque Center
Sat 12:09:26 PM 33.0425 -103.9103 56° Northeast 365 420 37,000  Level Albuquerque Center
Sat 12:10:28 PM 33.0992 -103.8117 56° Northeast 362 417 37,000  Level Albuquerque Center
Sat 12:11:29 PM 33.1556 -103.7125 56° Northeast 363 418 37,000  Level Albuquerque Center
Sat 12:12:31 PM 33.2072 -103.6172 57° Northeast 352 405 37,000  Level Albuquerque Center
Sat 12:13:32 PM 33.2622 -103.5181 56° Northeast 354 407 37,000  Level Albuquerque Center
Sat 12:14:34 PM 33.3189 -103.4178 56° Northeast 360 414 37,000  Level Albuquerque Center
Sat 12:15:36 PM 33.3736 -103.3192 56° Northeast 358 412 37,000  Level Albuquerque Center
Sat 12:16:37 PM 33.4292 -103.2200 56° Northeast 358 412 37,000  Level Albuquerque Center
Sat 12:17:39 PM 33.4836 -103.1217 56° Northeast 356 410 37,000  Level Albuquerque Center
Sat 12:18:40 PM 33.5492 -103.0047 56° Northeast 353 406 37,000  Level Albuquerque Center
Sat 12:19:42 PM 33.6039 -102.9047 57° Northeast 355 409 37,000  Level Albuquerque Center
Sat 12:20:31 PM 33.6472 -102.8261 56° Northeast 355 409 37,000  Level Albuquerque Center
Sat 12:21:32 PM 33.7014 -102.7267 57° Northeast 355 409 37,000  Level Albuquerque Center
Sat 12:22:34 PM 33.7561 -102.6267 57° Northeast 358 412 37,000  Level Albuquerque Center
Sat 12:23:14 PM 33.7922 -102.5517 60° Northeast 351 404 37,000  Level Fort Worth Center
Sat 12:24:13 PM 33.8481 -102.4650 52° Northeast 356 410 37,000  Level Fort Worth Center
Sat 12:25:14 PM 33.9044 -102.3558 58° Northeast 356 410 37,000  Level Fort Worth Center
Sat 12:26:14 PM 33.9539 -102.2658 56° Northeast 356 410 37,000  Level Fort Worth Center
Sat 12:27:13 PM 34.0125 -102.1564 57° Northeast 357 411 37,000  Level Fort Worth Center
Sat 12:28:13 PM 34.0597 -102.0639 58° Northeast 357 411 37,000  Level Fort Worth Center
Sat 12:29:14 PM 34.1178 -101.9592 56° Northeast 357 411 37,000  Level Fort Worth Center
Sat 12:30:13 PM 34.1714 -101.8589 57° Northeast 357 411 37,000  Level Fort Worth Center
Sat 12:31:14 PM 34.2250 -101.7589 57° Northeast 357 411 37,000  Level Fort Worth Center
Sat 12:32:14 PM 34.2786 -101.6608 56° Northeast 357 411 37,000  Level Fort Worth Center
Sat 12:33:14 PM 34.3300 -101.5578 59° Northeast 357 411 37,000  Level Fort Worth Center
Sat 12:34:53 PM 34.4136 -101.3989 57° Northeast 352 405 37,000  Level Albuquerque Center
Sat 12:35:55 PM 34.4664 -101.3017 57° Northeast 350 403 37,000  Level Albuquerque Center
Sat 12:36:57 PM 34.5183 -101.2019 58° Northeast 351 404 37,000  Level Albuquerque Center
Sat 12:37:58 PM 34.5808 -101.0817 58° Northeast 352 405 37,000  Level Albuquerque Center
Sat 12:39:00 PM 34.6333 -100.9825 57° Northeast 352 405 37,000  Level Albuquerque Center
Sat 12:40:02 PM 34.6853 -100.8831 58° Northeast 352 405 37,000  Level Albuquerque Center
Sat 12:41:03 PM 34.7367 -100.7833 58° Northeast 351 404 37,000  Level Albuquerque Center
Sat 12:42:06 PM 34.7892 -100.6833 57° Northeast 352 405 37,000  Level Albuquerque Center
Sat 12:43:07 PM 34.8414 -100.5825 58° Northeast 354 407 37,000  Level Albuquerque Center
Sat 12:44:09 PM 34.9047 -100.4603 58° Northeast 356 410 37,000  Level Albuquerque Center
Sat 12:45:11 PM 34.9517 -100.3667 59° Northeast 359 413 37,000  Level Albuquerque Center
Sat 12:46:13 PM 35.0044 -100.2631 58° Northeast 359 413 37,000  Level Albuquerque Center
Sat 12:47:14 PM 35.0572 -100.1594 58° Northeast 359 413 37,000  Level Albuquerque Center
Sat 12:48:16 PM 35.1214 -100.0353 58° Northeast 360 414 37,000  Level Albuquerque Center
Sat 12:49:18 PM 35.1731 -99.9325 58° Northeast 356 410 37,000  Level Albuquerque Center
Sat 12:50:20 PM 35.2256 -99.8292 58° Northeast 356 410 37,000  Level Albuquerque Center
Sat 12:51:22 PM 35.2781 -99.7267 58° Northeast 356 410 37,000  Level Albuquerque Center
Sat 12:52:23 PM 35.3292 -99.6225 59° Northeast 357 411 37,000  Level Albuquerque Center
Sat 12:53:25 PM 35.3808 -99.5183 59° Northeast 357 411 37,000  Level Albuquerque Center
Sat 12:55:01 PM 35.4628 -99.3553 58° Northeast 353 406 37,000  Level Kansas City Center
Sat 12:56:03 PM 35.5142 -99.2522 58° Northeast 354 407 37,000  Level Kansas City Center
Sat 12:57:05 PM 35.5742 -99.1300 59° Northeast 350 403 37,000  Level Kansas City Center
Sat 12:58:06 PM 35.6244 -99.0283 59° Northeast 349 402 37,000  Level Kansas City Center
Sat 12:59:08 PM 35.6744 -98.9272 59° Northeast 349 402 37,000  Level Kansas City Center
Sat 01:00:10 PM 35.7250 -98.8244 59° Northeast 352 405 37,000  Level Kansas City Center
Sat 01:01:12 PM 35.7736 -98.7244 59° Northeast 351 404 37,000  Level Kansas City Center
Sat 01:02:13 PM 35.8256 -98.6192 59° Northeast 351 404 37,000  Level Kansas City Center
Sat 01:03:15 PM 35.8861 -98.4947 59° Northeast 352 405 37,000  Level Kansas City Center
Sat 01:04:17 PM 35.9361 -98.3922 59° Northeast 350 403 37,000  Level Kansas City Center
Sat 01:05:19 PM 35.9867 -98.2878 59° Northeast 353 406 37,000  Level Kansas City Center
Sat 01:06:21 PM 36.0369 -98.1836 59° Northeast 353 406 37,000  Level Kansas City Center
Sat 01:07:23 PM 36.0872 -98.0800 59° Northeast 352 405 37,000  Level Kansas City Center
Sat 01:08:24 PM 36.1361 -97.9772 59° Northeast 351 404 37,000  Level Kansas City Center
Sat 01:09:26 PM 36.1858 -97.8719 60° Northeast 353 406 37,000  Level Kansas City Center
Sat 01:10:28 PM 36.2456 -97.7472 59° Northeast 351 404 37,000  Level Kansas City Center
Sat 01:11:30 PM 36.2956 -97.6431 59° Northeast 351 404 37,000  Level Kansas City Center
Sat 01:12:32 PM 36.3453 -97.5378 60° Northeast 352 405 37,000  Level Kansas City Center
Sat 01:13:34 PM 36.3953 -97.4303 60° Northeast 357 411 37,000  Level Kansas City Center
Sat 01:14:35 PM 36.4447 -97.3242 60° Northeast 355 409 37,000  Level Kansas City Center
Sat 01:15:37 PM 36.4950 -97.2197 59° Northeast 353 406 37,000  Level Kansas City Center
Sat 01:16:39 PM 36.5444 -97.1122 60° Northeast 356 410 37,000  Level Kansas City Center
Sat 01:17:41 PM 36.6008 -96.9919 60° Northeast 357 411 37,000  Level Kansas City Center
Sat 01:18:43 PM 36.6508 -96.8836 60° Northeast 358 412 37,000  Level Kansas City Center
Sat 01:19:45 PM 36.7011 -96.7761 60° Northeast 358 412 37,000  Level Kansas City Center
Sat 01:20:47 PM 36.7511 -96.6675 60° Northeast 359 413 37,000  Level Kansas City Center
Sat 01:21:49 PM 36.8000 -96.5589 61° Northeast 359 413 37,000  Level Kansas City Center
Sat 01:22:50 PM 36.8606 -96.4275 60° Northeast 361 415 37,000  Level Kansas City Center
Sat 01:23:52 PM 36.9094 -96.3175 61° Northeast 361 415 37,000  Level Kansas City Center
Sat 01:24:54 PM 36.9600 -96.2067 60° Northeast 363 418 37,000  Level Kansas City Center
Sat 01:25:56 PM 37.0106 -96.0969 60° Northeast 363 418 37,000  Level Kansas City Center
Sat 01:26:58 PM 37.0597 -95.9856 61° Northeast 363 418 37,000  Level Kansas City Center
Sat 01:28:00 PM 37.1100 -95.8747 60° Northeast 364 419 37,000  Level Kansas City Center
Sat 01:29:02 PM 37.1594 -95.7644 61° Northeast 362 417 37,000  Level Kansas City Center
Sat 01:30:04 PM 37.2092 -95.6531 61° Northeast 363 418 37,000  Level Kansas City Center
Sat 01:31:06 PM 37.2692 -95.5181 61° Northeast 366 421 37,000  Level Kansas City Center
Sat 01:32:08 PM 37.3186 -95.4072 61° Northeast 364 419 37,000  Level Kansas City Center
Sat 01:33:10 PM 37.3678 -95.2964 61° Northeast 362 417 37,000  Level Kansas City Center
Sat 01:34:12 PM 37.4178 -95.1847 61° Northeast 365 420 37,000  Level Kansas City Center
Sat 01:35:14 PM 37.4672 -95.0728 61° Northeast 364 419 37,000  Level Kansas City Center
Sat 01:36:16 PM 37.5175 -94.9586 61° Northeast 369 425 37,000  Level Kansas City Center
Sat 01:37:18 PM 37.5669 -94.8439 61° Northeast 370 426 37,000  Level Kansas City Center
Sat 01:38:20 PM 37.6253 -94.7053 62° Northeast 372 428 37,000  Level Kansas City Center
Sat 01:39:22 PM 37.6764 -94.5900 61° Northeast 371 427 37,000  Level Kansas City Center
Sat 01:40:24 PM 37.7233 -94.4800 62° Northeast 372 428 37,000  Level Kansas City Center
Sat 01:41:26 PM 37.7717 -94.3692 61° Northeast 372 428 37,000  Level Kansas City Center
Sat 01:42:28 PM 37.8211 -94.2536 62° Northeast 373 429 37,000  Level Kansas City Center
Sat 01:43:30 PM 37.8806 -94.1128 62° Northeast 375 432 37,000  Level Kansas City Center
Sat 01:45:33 PM 37.9808 -93.8767 62° Northeast 379 436 37,000  Level Kansas City Center
Sat 01:46:35 PM 38.0300 -93.7564 63° Northeast 381 438 37,000  Level Kansas City Center
Sat 01:47:37 PM 38.0817 -93.6364 61° Northeast 385 443 37,000  Level Kansas City Center
Sat 01:48:39 PM 38.1314 -93.5164 62° Northeast 383 441 37,000  Level Kansas City Center
Sat 01:49:41 PM 38.1811 -93.3964 62° Northeast 382 440 37,000  Level Kansas City Center
Sat 01:50:43 PM 38.2319 -93.2761 62° Northeast 383 441 37,000  Level Kansas City Center
Sat 01:51:45 PM 38.2922 -93.1294 62° Northeast 386 444 37,000  Level Kansas City Center
Sat 01:52:47 PM 38.3442 -93.0072 62° Northeast 388 447 37,000  Level Kansas City Center
Sat 01:53:48 PM 38.3936 -92.8847 63° Northeast 388 447 37,000  Level Kansas City Center
Sat 01:54:50 PM 38.4442 -92.7606 63° Northeast 389 448 37,000  Level Kansas City Center
Sat 01:55:52 PM 38.4942 -92.6367 63° Northeast 390 449 37,000  Level Kansas City Center
Sat 01:56:54 PM 38.5442 -92.5147 62° Northeast 387 445 37,000  Level Kansas City Center
Sat 01:57:56 PM 38.5933 -92.3903 63° Northeast 387 445 37,000  Level Kansas City Center
Sat 01:58:58 PM 38.6442 -92.2636 63° Northeast 391 450 37,000  Level Kansas City Center
Sat 02:00:02 PM 38.7042 -92.1131 63° Northeast 393 452 37,000  Level Kansas City Center
Sat 02:01:04 PM 38.7544 -91.9856 63° Northeast 396 456 37,000  Level Kansas City Center
Sat 02:02:06 PM 38.8039 -91.8600 63° Northeast 395 455 37,000  Level Kansas City Center
Sat 02:03:08 PM 38.8542 -91.7322 63° Northeast 398 458 37,000  Level Kansas City Center
Sat 02:04:10 PM 38.9028 -91.6111 63° Northeast 397 457 37,000  Level Kansas City Center
Sat 02:05:12 PM 38.9522 -91.4828 64° Northeast 400 460 37,000  Level Kansas City Center
Sat 02:06:13 PM 39.0025 -91.3556 63° Northeast 400 460 37,000  Level Kansas City Center
Sat 02:07:15 PM 39.0619 -91.2017 64° Northeast 400 460 37,000  Level Kansas City Center
Sat 02:08:17 PM 39.1136 -91.0728 63° Northeast 403 464 37,000  Level Kansas City Center
Sat 02:09:19 PM 39.1625 -90.9425 64° Northeast 404 465 37,000  Level Kansas City Center
Sat 02:10:21 PM 39.2122 -90.8139 63° Northeast 402 463 37,000  Level Kansas City Center
Sat 02:11:23 PM 39.2633 -90.6806 64° Northeast 409 471 37,000  Level Kansas City Center
Sat 02:12:24 PM 39.3136 -90.5486 64° Northeast 409 471 37,000  Level Kansas City Center
Sat 02:13:26 PM 39.3644 -90.4169 63° Northeast 409 471 37,000  Level Kansas City Center
Sat 02:14:28 PM 39.4136 -90.2847 64° Northeast 408 470 37,000  Level Kansas City Center
Sat 02:15:30 PM 39.4728 -90.1253 64° Northeast 408 470 37,000  Level Kansas City Center
Sat 02:16:31 PM 39.5219 -89.9911 65° Northeast 411 473 37,000  Level Kansas City Center
Sat 02:17:33 PM 39.5711 -89.8586 64° Northeast 410 472 37,000  Level Kansas City Center
Sat 02:18:35 PM 39.6208 -89.7253 64° Northeast 410 472 37,000  Level Kansas City Center
Sat 02:19:37 PM 39.6700 -89.5900 65° Northeast 413 475 37,000  Level Kansas City Center
Sat 02:20:38 PM 39.7175 -89.4597 65° Northeast 414 476 37,000  Level Kansas City Center
Sat 02:21:40 PM 39.7772 -89.2981 64° Northeast 414 476 37,000  Level Kansas City Center
Sat 02:22:42 PM 39.8261 -89.1619 65° Northeast 415 478 37,000  Level Kansas City Center
Sat 02:23:43 PM 39.8756 -89.0267 64° Northeast 416 479 37,000  Level Kansas City Center
Sat 02:24:45 PM 39.9239 -88.8908 65° Northeast 416 479 37,000  Level Kansas City Center
Sat 02:25:47 PM 39.9725 -88.7550 65° Northeast 415 478 37,000  Level Kansas City Center
Sat 02:26:48 PM 40.0211 -88.6156 65° Northeast 420 483 37,000  Level Kansas City Center
Sat 02:27:50 PM 40.0714 -88.4778 64° Northeast 416 479 37,000  Level Kansas City Center
Sat 02:28:45 PM 40.1167 -88.3436 66° East 417 480 37,000  Level Chicago Center
Sat 02:29:46 PM 40.1650 -88.2056 65° Northeast 419 482 37,000  Level Chicago Center
Sat 02:30:48 PM 40.2164 -88.0608 65° Northeast 416 479 37,000  Level Chicago Center
Sat 02:31:50 PM 40.2650 -87.9231 65° Northeast 420 483 37,000  Level Chicago Center
Sat 02:32:51 PM 40.3111 -87.7861 66° East 416 479 37,000  Level Chicago Center
Sat 02:33:53 PM 40.3683 -87.6208 66° East 419 482 37,000  Level Chicago Center
Sat 02:34:54 PM 40.4161 -87.4847 65° Northeast 417 480 37,000  Level Chicago Center
Sat 02:35:56 PM 40.4617 -87.3500 66° East 409 471 37,000 -48 Level Chicago Center
Sat 02:36:58 PM 40.5089 -87.2114 66° East 418 481 36,900 -439 Descending Chicago Center
Sat 02:37:59 PM 40.5658 -87.0506 65° Northeast 429 494 36,100 -732 Descending Chicago Center
Sat 02:39:01 PM 40.6350 -86.9150 56° Northeast 446 513 35,400 -726 Descending Chicago Center
Sat 02:40:03 PM 40.7069 -86.7711 57° Northeast 450 518 34,600 -683 Descending Chicago Center
Sat 02:41:04 PM 40.7722 -86.6419 56° Northeast 446 513 34,000 -683 Descending Chicago Center
Sat 02:42:06 PM 40.8403 -86.5039 57° Northeast 447 514 33,200 -726 Descending Chicago Center
Sat 02:43:08 PM 40.9094 -86.3656 56° Northeast 451 519 32,500 -683 Descending Chicago Center
Sat 02:44:09 PM 40.9789 -86.2256 57° Northeast 456 525 31,800 -683 Descending Chicago Center
Sat 02:45:11 PM 41.0475 -86.0825 58° Northeast 459 528 31,100 -919 Descending Chicago Center
Sat 02:46:13 PM 41.1317 -85.9125 57° Northeast 462 532 29,900 -1,887 Descending Chicago Center
Sat 02:47:15 PM 41.1986 -85.7725 58° Northeast 457 526 27,200 -2,585 Descending Chicago Center
Sat 02:48:16 PM 41.2658 -85.6342 57° Northeast 450 518 24,600 -2,098 Descending Chicago Center
Sat 02:49:18 PM 41.3286 -85.5036 57° Northeast 424 488 22,900 -1,548 Descending Chicago Center
Sat 02:50:20 PM 41.3897 -85.3764 57° Northeast 412 474 21,400 -927 Descending Chicago Center
Sat 02:51:21 PM 41.4628 -85.2253 57° Northeast 412 474 21,000 -195 Descending Chicago Center
Sat 02:52:23 PM 41.5206 -85.1022 58° Northeast 401 461 21,000 -97 Level Chicago Center
Sat 02:53:25 PM 41.5806 -84.9783 57° Northeast 400 460 20,800 -585 Descending Chicago Center
Sat 02:54:26 PM 41.6389 -84.8542 58° Northeast 399 459 19,800 -1,037 Descending Chicago Center
Sat 02:54:46 PM 41.6633 -84.8031 57° Northeast 400 460 19,400 -1,125 Descending Cleveland Center
Sat 02:55:46 PM 41.7197 -84.6869 57° Northeast 388 447 18,300 -1,200 Descending Cleveland Center
Sat 02:56:46 PM 41.7739 -84.5678 59° Northeast 377 434 17,000 -2,150 Descending Cleveland Center
Sat 02:57:46 PM 41.8300 -84.4514 57° Northeast 377 434 14,000 -3,000 Descending Cleveland Center
Sat 02:58:46 PM 41.8772 -84.3511 58° Northeast 348 400 11,000 -2,880 Descending Cleveland Center
Sat 02:59:01 PM 41.8864 -84.3264 64° Northeast 309 356 10,400 -1,600 Descending Cleveland Center
Sat 02:59:46 PM 41.9156 -84.2611 59° Northeast 317 365 9,400 -1,714 Descending Cleveland Center
Sat 03:00:46 PM 41.9603 -84.1633 58° Northeast 301 346 7,400 -1,714 Descending Cleveland Center
Sat 03:01:45 PM 42.0150 -84.0825 48° Northeast 280 322 6,000 -1,200 Descending Cleveland Center
Sat 03:02:46 PM 42.0694 -84.0069 46° Northeast 269 310 5,000 -942 Descending Cleveland Center
Sat 03:03:46 PM 42.1194 -83.9397 45° Northeast 269 310 4,100 -522 Descending Cleveland Center
Sat 03:04:41 PM 42.1714 -83.8697 45° Northeast 267 307 4,000 -52 Descending Cleveland Center
Sat 03:05:42 PM 42.2197 -83.7853 52° Northeast 269 310 4,000 -49 Level Cleveland Center
Sat 03:06:43 PM 42.2656 -83.7033 53° Northeast 271 312 3,900 -446 Descending Cleveland Center
Sat 03:07:43 PM 42.2744 -83.6139 82° East 220 253 3,100 -793 Descending Cleveland Center
Sat 03:08:44 PM 42.2867 -83.5386 78° East 183 211 2,300 -885 Descending Cleveland Center
Sat 03:09:45 PM 42.2625 -83.5094 138° Southeast 120 138 1,300 -984 Descending Cleveland Center

Login

Don't have an account? Register now (free) for customized features, flight alerts, and more!